sensor_id;sensor_type;location;lat;lon;timestamp;temperature;humidity
80210;DHT22;69529;37.974;23.708;2023-05-10T00:00:26;21.90;48.90
80210;DHT22;69529;37.974;23.708;2023-05-10T00:02:53;21.90;48.90
80210;DHT22;69529;37.974;23.708;2023-05-10T00:05:20;21.80;48.90
80210;DHT22;69529;37.974;23.708;2023-05-10T00:07:47;21.80;48.90
80210;DHT22;69529;37.974;23.708;2023-05-10T00:10:14;21.90;48.90
80210;DHT22;69529;37.974;23.708;2023-05-10T00:12:41;21.80;48.90
80210;DHT22;69529;37.974;23.708;2023-05-10T00:15:08;21.90;49.00
80210;DHT22;69529;37.974;23.708;2023-05-10T00:17:35;21.80;49.00
80210;DHT22;69529;37.974;23.708;2023-05-10T00:20:02;21.80;48.90
80210;DHT22;69529;37.974;23.708;2023-05-10T00:22:30;21.80;49.00
80210;DHT22;69529;37.974;23.708;2023-05-10T00:24:58;21.80;49.60
80210;DHT22;69529;37.974;23.708;2023-05-10T00:27:24;21.80;49.00
80210;DHT22;69529;37.974;23.708;2023-05-10T00:29:51;21.90;49.10
80210;DHT22;69529;37.974;23.708;2023-05-10T00:32:18;21.80;49.10
80210;DHT22;69529;37.974;23.708;2023-05-10T00:34:45;21.80;49.10
80210;DHT22;69529;37.974;23.708;2023-05-10T00:37:12;21.80;49.00
80210;DHT22;69529;37.974;23.708;2023-05-10T00:39:39;21.80;49.10
80210;DHT22;69529;37.974;23.708;2023-05-10T00:42:06;21.80;49.10
80210;DHT22;69529;37.974;23.708;2023-05-10T00:44:32;21.80;49.10
80210;DHT22;69529;37.974;23.708;2023-05-10T00:46:59;21.80;49.10
80210;DHT22;69529;37.974;23.708;2023-05-10T00:49:26;21.80;49.10
80210;DHT22;69529;37.974;23.708;2023-05-10T00:51:54;21.80;49.10
80210;DHT22;69529;37.974;23.708;2023-05-10T00:54:21;21.80;49.10
80210;DHT22;69529;37.974;23.708;2023-05-10T00:56:48;21.80;49.10
80210;DHT22;69529;37.974;23.708;2023-05-10T00:59:15;21.80;49.00
80210;DHT22;69529;37.974;23.708;2023-05-10T01:01:48;21.70;49.00
80210;DHT22;69529;37.974;23.708;2023-05-10T01:04:12;21.80;49.00
80210;DHT22;69529;37.974;23.708;2023-05-10T01:06:40;21.80;49.60
80210;DHT22;69529;37.974;23.708;2023-05-10T01:09:07;21.80;48.90
80210;DHT22;69529;37.974;23.708;2023-05-10T01:11:34;21.70;48.90
80210;DHT22;69529;37.974;23.708;2023-05-10T01:14:01;21.80;48.90
80210;DHT22;69529;37.974;23.708;2023-05-10T01:16:34;21.80;48.90
80210;DHT22;69529;37.974;23.708;2023-05-10T01:18:57;21.80;48.80
80210;DHT22;69529;37.974;23.708;2023-05-10T01:21:33;21.80;48.80
80210;DHT22;69529;37.974;23.708;2023-05-10T01:26:55;21.70;49.30
80210;DHT22;69529;37.974;23.708;2023-05-10T01:32:08;21.70;48.70
80210;DHT22;69529;37.974;23.708;2023-05-10T01:34:46;21.70;48.70
80210;DHT22;69529;37.974;23.708;2023-05-10T01:37:13;21.70;48.70
80210;DHT22;69529;37.974;23.708;2023-05-10T01:39:43;21.70;48.70
80210;DHT22;69529;37.974;23.708;2023-05-10T01:42:11;21.70;48.60
80210;DHT22;69529;37.974;23.708;2023-05-10T01:49:58;21.70;48.60
80210;DHT22;69529;37.974;23.708;2023-05-10T01:52:26;21.70;48.60
80210;DHT22;69529;37.974;23.708;2023-05-10T01:54:55;21.60;48.60
80210;DHT22;69529;37.974;23.708;2023-05-10T01:57:22;21.60;48.50
80210;DHT22;69529;37.974;23.708;2023-05-10T01:59:51;21.70;48.50
80210;DHT22;69529;37.974;23.708;2023-05-10T02:02:20;21.70;48.50
80210;DHT22;69529;37.974;23.708;2023-05-10T02:04:47;21.70;48.50
80210;DHT22;69529;37.974;23.708;2023-05-10T02:07:15;21.70;48.40
80210;DHT22;69529;37.974;23.708;2023-05-10T02:09:44;21.60;48.40
80210;DHT22;69529;37.974;23.708;2023-05-10T02:12:12;21.60;48.40
80210;DHT22;69529;37.974;23.708;2023-05-10T02:14:40;21.60;49.00
80210;DHT22;69529;37.974;23.708;2023-05-10T02:17:07;21.70;48.50
80210;DHT22;69529;37.974;23.708;2023-05-10T02:19:40;21.60;48.40
80210;DHT22;69529;37.974;23.708;2023-05-10T02:22:03;21.60;48.40
80210;DHT22;69529;37.974;23.708;2023-05-10T02:24:30;21.70;48.50
80210;DHT22;69529;37.974;23.708;2023-05-10T02:26:58;21.60;48.40
80210;DHT22;69529;37.974;23.708;2023-05-10T02:29:26;21.60;48.50
80210;DHT22;69529;37.974;23.708;2023-05-10T02:31:54;21.60;48.50
80210;DHT22;69529;37.974;23.708;2023-05-10T02:34:21;21.60;48.50
80210;DHT22;69529;37.974;23.708;2023-05-10T02:36:48;21.60;48.40
80210;DHT22;69529;37.974;23.708;2023-05-10T02:39:16;21.60;48.40
80210;DHT22;69529;37.974;23.708;2023-05-10T02:41:44;21.60;48.40
80210;DHT22;69529;37.974;23.708;2023-05-10T02:44:12;21.60;48.40
80210;DHT22;69529;37.974;23.708;2023-05-10T02:46:40;21.60;48.40
80210;DHT22;69529;37.974;23.708;2023-05-10T02:49:07;21.60;48.50
80210;DHT22;69529;37.974;23.708;2023-05-10T02:51:35;21.60;48.50
80210;DHT22;69529;37.974;23.708;2023-05-10T02:54:12;21.60;48.50
80210;DHT22;69529;37.974;23.708;2023-05-10T02:56:35;21.60;48.40
80210;DHT22;69529;37.974;23.708;2023-05-10T02:59:04;21.60;48.50
80210;DHT22;69529;37.974;23.708;2023-05-10T03:01:32;21.60;48.40
80210;DHT22;69529;37.974;23.708;2023-05-10T03:03:58;21.60;48.40
80210;DHT22;69529;37.974;23.708;2023-05-10T03:06:26;21.60;48.50
80210;DHT22;69529;37.974;23.708;2023-05-10T03:08:54;21.60;48.30
80210;DHT22;69529;37.974;23.708;2023-05-10T03:11:32;21.60;48.30
80210;DHT22;69529;37.974;23.708;2023-05-10T03:14:02;21.60;48.30
80210;DHT22;69529;37.974;23.708;2023-05-10T03:16:29;21.60;48.30
80210;DHT22;69529;37.974;23.708;2023-05-10T03:18:58;21.50;48.20
80210;DHT22;69529;37.974;23.708;2023-05-10T03:21:25;21.60;48.30
80210;DHT22;69529;37.974;23.708;2023-05-10T03:23:59;21.50;48.20
80210;DHT22;69529;37.974;23.708;2023-05-10T03:26:27;21.50;48.30
80210;DHT22;69529;37.974;23.708;2023-05-10T03:28:55;21.60;48.20
80210;DHT22;69529;37.974;23.708;2023-05-10T03:31:22;21.50;48.20
80210;DHT22;69529;37.974;23.708;2023-05-10T03:33:50;21.50;48.10
80210;DHT22;69529;37.974;23.708;2023-05-10T03:36:17;21.50;48.00
80210;DHT22;69529;37.974;23.708;2023-05-10T03:38:44;21.50;48.00
80210;DHT22;69529;37.974;23.708;2023-05-10T03:41:11;21.60;48.10
80210;DHT22;69529;37.974;23.708;2023-05-10T03:43:38;21.50;48.00
80210;DHT22;69529;37.974;23.708;2023-05-10T03:46:05;21.50;48.00
80210;DHT22;69529;37.974;23.708;2023-05-10T03:48:32;21.50;47.90
80210;DHT22;69529;37.974;23.708;2023-05-10T03:50:59;21.50;47.90
80210;DHT22;69529;37.974;23.708;2023-05-10T03:53:26;21.50;47.90
80210;DHT22;69529;37.974;23.708;2023-05-10T03:55:53;21.50;47.90
80210;DHT22;69529;37.974;23.708;2023-05-10T03:58:20;21.60;48.00
80210;DHT22;69529;37.974;23.708;2023-05-10T04:00:47;21.60;47.90
80210;DHT22;69529;37.974;23.708;2023-05-10T04:03:14;21.60;47.90
80210;DHT22;69529;37.974;23.708;2023-05-10T04:05:41;21.60;47.80
80210;DHT22;69529;37.974;23.708;2023-05-10T04:08:08;21.50;47.80
80210;DHT22;69529;37.974;23.708;2023-05-10T04:10:35;21.50;47.80
80210;DHT22;69529;37.974;23.708;2023-05-10T04:13:02;21.60;47.90
80210;DHT22;69529;37.974;23.708;2023-05-10T04:15:29;21.60;47.80
80210;DHT22;69529;37.974;23.708;2023-05-10T04:17:55;21.60;47.80
80210;DHT22;69529;37.974;23.708;2023-05-10T04:20:22;21.60;48.60
80210;DHT22;69529;37.974;23.708;2023-05-10T04:22:49;21.50;49.60
80210;DHT22;69529;37.974;23.708;2023-05-10T04:25:16;21.60;48.90
80210;DHT22;69529;37.974;23.708;2023-05-10T04:27:43;21.60;48.60
80210;DHT22;69529;37.974;23.708;2023-05-10T04:30:10;21.60;48.50
80210;DHT22;69529;37.974;23.708;2023-05-10T04:32:37;21.60;48.30
80210;DHT22;69529;37.974;23.708;2023-05-10T04:35:04;21.60;48.30
80210;DHT22;69529;37.974;23.708;2023-05-10T04:37:32;21.60;48.20
80210;DHT22;69529;37.974;23.708;2023-05-10T04:39:58;21.60;48.20
80210;DHT22;69529;37.974;23.708;2023-05-10T04:42:25;21.60;48.20
80210;DHT22;69529;37.974;23.708;2023-05-10T04:44:52;21.50;48.10
80210;DHT22;69529;37.974;23.708;2023-05-10T04:47:19;21.50;48.10
80210;DHT22;69529;37.974;23.708;2023-05-10T04:49:46;21.60;48.00
80210;DHT22;69529;37.974;23.708;2023-05-10T04:52:13;21.60;48.00
80210;DHT22;69529;37.974;23.708;2023-05-10T04:54:42;21.60;48.00
80210;DHT22;69529;37.974;23.708;2023-05-10T04:57:08;21.60;48.00
80210;DHT22;69529;37.974;23.708;2023-05-10T04:59:36;21.60;47.90
80210;DHT22;69529;37.974;23.708;2023-05-10T05:02:03;21.60;47.90
80210;DHT22;69529;37.974;23.708;2023-05-10T05:04:30;21.60;47.80
80210;DHT22;69529;37.974;23.708;2023-05-10T05:06:57;21.70;47.80
80210;DHT22;69529;37.974;23.708;2023-05-10T05:09:24;21.70;47.80
80210;DHT22;69529;37.974;23.708;2023-05-10T05:11:51;21.70;47.60
80210;DHT22;69529;37.974;23.708;2023-05-10T05:14:18;21.80;47.50
80210;DHT22;69529;37.974;23.708;2023-05-10T05:16:46;21.80;47.30
80210;DHT22;69529;37.974;23.708;2023-05-10T05:19:13;22.00;47.10
80210;DHT22;69529;37.974;23.708;2023-05-10T05:21:41;22.10;46.90
80210;DHT22;69529;37.974;23.708;2023-05-10T05:24:08;22.20;46.60
80210;DHT22;69529;37.974;23.708;2023-05-10T05:26:36;22.30;46.40
80210;DHT22;69529;37.974;23.708;2023-05-10T05:29:03;22.30;46.30
80210;DHT22;69529;37.974;23.708;2023-05-10T05:31:29;22.40;46.10
80210;DHT22;69529;37.974;23.708;2023-05-10T05:33:56;22.40;46.00
80210;DHT22;69529;37.974;23.708;2023-05-10T05:36:23;22.40;46.00
80210;DHT22;69529;37.974;23.708;2023-05-10T05:38:50;22.40;45.90
80210;DHT22;69529;37.974;23.708;2023-05-10T05:41:17;22.40;45.90
80210;DHT22;69529;37.974;23.708;2023-05-10T05:43:44;22.40;45.80
80210;DHT22;69529;37.974;23.708;2023-05-10T05:46:11;22.50;45.70
80210;DHT22;69529;37.974;23.708;2023-05-10T05:48:38;22.60;45.60
80210;DHT22;69529;37.974;23.708;2023-05-10T05:51:05;22.60;45.40
80210;DHT22;69529;37.974;23.708;2023-05-10T05:53:31;22.70;45.30
80210;DHT22;69529;37.974;23.708;2023-05-10T05:55:58;22.70;45.20
80210;DHT22;69529;37.974;23.708;2023-05-10T05:58:25;22.70;45.20
80210;DHT22;69529;37.974;23.708;2023-05-10T06:00:52;22.80;45.10
80210;DHT22;69529;37.974;23.708;2023-05-10T06:03:20;22.80;45.00
80210;DHT22;69529;37.974;23.708;2023-05-10T06:05:47;22.80;44.90
80210;DHT22;69529;37.974;23.708;2023-05-10T06:08:14;22.80;45.50
80210;DHT22;69529;37.974;23.708;2023-05-10T06:10:41;22.90;44.80
80210;DHT22;69529;37.974;23.708;2023-05-10T06:13:08;22.90;44.60
80210;DHT22;69529;37.974;23.708;2023-05-10T06:15:34;23.00;44.50
80210;DHT22;69529;37.974;23.708;2023-05-10T06:18:01;23.10;43.90
80210;DHT22;69529;37.974;23.708;2023-05-10T06:20:28;23.20;44.00
80210;DHT22;69529;37.974;23.708;2023-05-10T06:22:57;23.20;43.80
80210;DHT22;69529;37.974;23.708;2023-05-10T06:25:24;23.40;43.60
80210;DHT22;69529;37.974;23.708;2023-05-10T06:27:51;23.40;43.50
80210;DHT22;69529;37.974;23.708;2023-05-10T06:30:20;23.40;43.40
80210;DHT22;69529;37.974;23.708;2023-05-10T06:32:48;23.50;43.30
80210;DHT22;69529;37.974;23.708;2023-05-10T06:35:15;23.50;43.10
80210;DHT22;69529;37.974;23.708;2023-05-10T06:37:42;23.60;42.90
80210;DHT22;69529;37.974;23.708;2023-05-10T06:40:09;23.60;42.70
80210;DHT22;69529;37.974;23.708;2023-05-10T06:42:36;23.70;42.60
80210;DHT22;69529;37.974;23.708;2023-05-10T06:45:03;23.70;42.50
80210;DHT22;69529;37.974;23.708;2023-05-10T06:47:31;23.80;42.30
80210;DHT22;69529;37.974;23.708;2023-05-10T06:49:58;23.90;42.20
80210;DHT22;69529;37.974;23.708;2023-05-10T06:52:24;24.00;42.00
80210;DHT22;69529;37.974;23.708;2023-05-10T06:54:51;24.00;41.90
80210;DHT22;69529;37.974;23.708;2023-05-10T06:57:18;24.10;41.60
80210;DHT22;69529;37.974;23.708;2023-05-10T06:59:46;24.20;41.40
80210;DHT22;69529;37.974;23.708;2023-05-10T07:02:13;24.20;41.20
80210;DHT22;69529;37.974;23.708;2023-05-10T07:04:40;24.30;41.10
80210;DHT22;69529;37.974;23.708;2023-05-10T07:07:07;24.30;41.00
80210;DHT22;69529;37.974;23.708;2023-05-10T07:09:36;24.30;41.00
80210;DHT22;69529;37.974;23.708;2023-05-10T07:12:03;24.30;41.00
80210;DHT22;69529;37.974;23.708;2023-05-10T07:14:30;24.30;41.00
80210;DHT22;69529;37.974;23.708;2023-05-10T07:16:56;24.40;40.90
80210;DHT22;69529;37.974;23.708;2023-05-10T07:19:23;24.50;40.80
80210;DHT22;69529;37.974;23.708;2023-05-10T07:21:50;24.50;40.70
80210;DHT22;69529;37.974;23.708;2023-05-10T07:24:17;24.60;40.60
80210;DHT22;69529;37.974;23.708;2023-05-10T07:26:44;24.60;40.50
80210;DHT22;69529;37.974;23.708;2023-05-10T07:29:11;24.60;40.40
80210;DHT22;69529;37.974;23.708;2023-05-10T07:31:38;24.60;40.30
80210;DHT22;69529;37.974;23.708;2023-05-10T07:34:06;24.60;40.30
80210;DHT22;69529;37.974;23.708;2023-05-10T07:36:33;24.60;40.40
80210;DHT22;69529;37.974;23.708;2023-05-10T07:39:00;24.50;40.50
80210;DHT22;69529;37.974;23.708;2023-05-10T07:41:27;24.40;40.60
80210;DHT22;69529;37.974;23.708;2023-05-10T07:43:54;24.30;40.80
80210;DHT22;69529;37.974;23.708;2023-05-10T07:46:21;24.30;41.00
80210;DHT22;69529;37.974;23.708;2023-05-10T07:48:48;24.20;41.10
80210;DHT22;69529;37.974;23.708;2023-05-10T07:51:15;24.20;41.20
80210;DHT22;69529;37.974;23.708;2023-05-10T07:53:42;24.10;41.30
80210;DHT22;69529;37.974;23.708;2023-05-10T07:56:28;24.10;41.40
80210;DHT22;69529;37.974;23.708;2023-05-10T07:58:58;24.10;41.50
80210;DHT22;69529;37.974;23.708;2023-05-10T08:01:26;24.00;41.40
80210;DHT22;69529;37.974;23.708;2023-05-10T08:03:53;24.00;41.50
80210;DHT22;69529;37.974;23.708;2023-05-10T08:06:20;24.00;41.50
80210;DHT22;69529;37.974;23.708;2023-05-10T08:08:48;24.00;41.50
80210;DHT22;69529;37.974;23.708;2023-05-10T08:11:16;24.00;41.60
80210;DHT22;69529;37.974;23.708;2023-05-10T08:13:46;24.00;41.60
80210;DHT22;69529;37.974;23.708;2023-05-10T08:16:13;23.90;41.60
80210;DHT22;69529;37.974;23.708;2023-05-10T08:18:40;23.90;41.70
80210;DHT22;69529;37.974;23.708;2023-05-10T08:21:07;23.90;41.70
80210;DHT22;69529;37.974;23.708;2023-05-10T08:23:35;23.90;41.70
80210;DHT22;69529;37.974;23.708;2023-05-10T08:26:02;23.90;41.60
80210;DHT22;69529;37.974;23.708;2023-05-10T08:28:28;24.00;41.70
80210;DHT22;69529;37.974;23.708;2023-05-10T08:30:55;23.90;41.60
80210;DHT22;69529;37.974;23.708;2023-05-10T08:33:22;23.90;41.60
80210;DHT22;69529;37.974;23.708;2023-05-10T08:35:49;23.90;41.60
80210;DHT22;69529;37.974;23.708;2023-05-10T08:38:17;23.90;41.60
80210;DHT22;69529;37.974;23.708;2023-05-10T08:40:44;23.90;41.50
80210;DHT22;69529;37.974;23.708;2023-05-10T08:43:11;23.80;41.70
80210;DHT22;69529;37.974;23.708;2023-05-10T08:45:41;23.90;41.40
80210;DHT22;69529;37.974;23.708;2023-05-10T08:48:08;23.90;41.50
80210;DHT22;69529;37.974;23.708;2023-05-10T08:50:36;23.90;41.40
80210;DHT22;69529;37.974;23.708;2023-05-10T08:53:04;23.90;41.40
80210;DHT22;69529;37.974;23.708;2023-05-10T08:55:32;23.90;41.40
80210;DHT22;69529;37.974;23.708;2023-05-10T08:57:59;23.80;41.30
80210;DHT22;69529;37.974;23.708;2023-05-10T09:00:26;23.90;41.40
80210;DHT22;69529;37.974;23.708;2023-05-10T09:02:54;23.90;42.10
80210;DHT22;69529;37.974;23.708;2023-05-10T09:05:22;23.90;41.30
80210;DHT22;69529;37.974;23.708;2023-05-10T09:07:49;23.90;41.90
80210;DHT22;69529;37.974;23.708;2023-05-10T09:10:18;23.90;41.30
80210;DHT22;69529;37.974;23.708;2023-05-10T09:12:45;23.90;41.30
80210;DHT22;69529;37.974;23.708;2023-05-10T09:15:14;23.90;41.30
80210;DHT22;69529;37.974;23.708;2023-05-10T09:17:41;23.90;41.30
80210;DHT22;69529;37.974;23.708;2023-05-10T09:20:08;23.90;41.30
80210;DHT22;69529;37.974;23.708;2023-05-10T09:22:36;23.90;41.30
80210;DHT22;69529;37.974;23.708;2023-05-10T09:25:07;23.90;41.20
80210;DHT22;69529;37.974;23.708;2023-05-10T09:27:34;23.90;41.20
80210;DHT22;69529;37.974;23.708;2023-05-10T09:30:02;23.90;41.20
80210;DHT22;69529;37.974;23.708;2023-05-10T09:32:36;23.90;41.20
80210;DHT22;69529;37.974;23.708;2023-05-10T09:35:09;23.90;41.20
80210;DHT22;69529;37.974;23.708;2023-05-10T09:37:35;23.90;41.10
80210;DHT22;69529;37.974;23.708;2023-05-10T09:40:04;23.90;41.10
80210;DHT22;69529;37.974;23.708;2023-05-10T09:42:30;23.90;41.20
80210;DHT22;69529;37.974;23.708;2023-05-10T09:45:01;23.90;41.10
80210;DHT22;69529;37.974;23.708;2023-05-10T09:47:28;23.90;41.10
80210;DHT22;69529;37.974;23.708;2023-05-10T09:49:56;23.90;41.00
80210;DHT22;69529;37.974;23.708;2023-05-10T09:52:26;23.90;41.10
80210;DHT22;69529;37.974;23.708;2023-05-10T09:54:53;23.90;41.10
80210;DHT22;69529;37.974;23.708;2023-05-10T09:57:21;23.90;41.00
80210;DHT22;69529;37.974;23.708;2023-05-10T09:59:48;23.90;41.00
80210;DHT22;69529;37.974;23.708;2023-05-10T10:02:16;23.90;41.00
80210;DHT22;69529;37.974;23.708;2023-05-10T10:04:43;23.90;40.90
80210;DHT22;69529;37.974;23.708;2023-05-10T10:07:10;23.90;40.90
80210;DHT22;69529;37.974;23.708;2023-05-10T10:09:37;23.90;40.90
80210;DHT22;69529;37.974;23.708;2023-05-10T10:12:05;23.90;40.90
80210;DHT22;69529;37.974;23.708;2023-05-10T10:14:32;23.90;41.00
80210;DHT22;69529;37.974;23.708;2023-05-10T10:17:00;23.90;40.90
80210;DHT22;69529;37.974;23.708;2023-05-10T10:19:27;23.90;40.90
80210;DHT22;69529;37.974;23.708;2023-05-10T10:21:54;23.90;40.90
80210;DHT22;69529;37.974;23.708;2023-05-10T10:24:21;23.90;40.90
80210;DHT22;69529;37.974;23.708;2023-05-10T10:26:48;23.90;40.80
80210;DHT22;69529;37.974;23.708;2023-05-10T10:29:21;23.90;40.80
80210;DHT22;69529;37.974;23.708;2023-05-10T10:36:50;23.90;40.70
80210;DHT22;69529;37.974;23.708;2023-05-10T10:39:17;23.90;40.80
80210;DHT22;69529;37.974;23.708;2023-05-10T10:41:54;23.90;40.80
80210;DHT22;69529;37.974;23.708;2023-05-10T10:46:59;23.90;40.80
80210;DHT22;69529;37.974;23.708;2023-05-10T10:49:27;23.90;40.90
80210;DHT22;69529;37.974;23.708;2023-05-10T10:54:39;23.90;41.00
80210;DHT22;69529;37.974;23.708;2023-05-10T10:57:12;23.80;41.00
80210;DHT22;69529;37.974;23.708;2023-05-10T10:59:42;23.80;41.10
80210;DHT22;69529;37.974;23.708;2023-05-10T11:02:08;23.80;41.20
80210;DHT22;69529;37.974;23.708;2023-05-10T11:04:42;23.80;41.10
80210;DHT22;69529;37.974;23.708;2023-05-10T11:07:18;23.80;41.20
80210;DHT22;69529;37.974;23.708;2023-05-10T11:09:47;23.80;41.20
80210;DHT22;69529;37.974;23.708;2023-05-10T11:12:14;23.80;41.30
80210;DHT22;69529;37.974;23.708;2023-05-10T11:14:40;23.80;41.30
80210;DHT22;69529;37.974;23.708;2023-05-10T11:17:24;23.80;41.40
80210;DHT22;69529;37.974;23.708;2023-05-10T11:20:07;23.80;41.50
80210;DHT22;69529;37.974;23.708;2023-05-10T11:22:50;23.80;41.60
80210;DHT22;69529;37.974;23.708;2023-05-10T11:25:17;23.80;41.60
80210;DHT22;69529;37.974;23.708;2023-05-10T11:27:45;23.80;41.60
80210;DHT22;69529;37.974;23.708;2023-05-10T11:30:13;23.80;41.70
80210;DHT22;69529;37.974;23.708;2023-05-10T11:32:40;23.80;41.70
80210;DHT22;69529;37.974;23.708;2023-05-10T11:35:08;23.80;41.60
80210;DHT22;69529;37.974;23.708;2023-05-10T11:37:35;23.90;41.70
80210;DHT22;69529;37.974;23.708;2023-05-10T11:40:02;23.80;41.70
80210;DHT22;69529;37.974;23.708;2023-05-10T11:42:29;23.90;41.80
80210;DHT22;69529;37.974;23.708;2023-05-10T11:44:56;23.90;41.90
80210;DHT22;69529;37.974;23.708;2023-05-10T11:47:23;23.90;41.90
80210;DHT22;69529;37.974;23.708;2023-05-10T11:49:50;23.80;41.90
80210;DHT22;69529;37.974;23.708;2023-05-10T11:52:18;23.90;42.00
80210;DHT22;69529;37.974;23.708;2023-05-10T11:54:55;23.80;42.00
80210;DHT22;69529;37.974;23.708;2023-05-10T11:57:14;23.80;42.20
80210;DHT22;69529;37.974;23.708;2023-05-10T11:59:41;23.80;42.20
80210;DHT22;69529;37.974;23.708;2023-05-10T12:02:08;23.80;42.30
80210;DHT22;69529;37.974;23.708;2023-05-10T12:04:34;23.80;42.30
80210;DHT22;69529;37.974;23.708;2023-05-10T12:07:01;23.90;42.40
80210;DHT22;69529;37.974;23.708;2023-05-10T12:09:28;23.90;42.40
80210;DHT22;69529;37.974;23.708;2023-05-10T12:11:55;23.80;42.40
80210;DHT22;69529;37.974;23.708;2023-05-10T12:14:22;23.80;42.50
80210;DHT22;69529;37.974;23.708;2023-05-10T12:16:50;23.70;42.50
80210;DHT22;69529;37.974;23.708;2023-05-10T12:19:19;23.80;42.70
80210;DHT22;69529;37.974;23.708;2023-05-10T12:21:47;23.80;42.70
80210;DHT22;69529;37.974;23.708;2023-05-10T12:24:13;23.80;42.70
80210;DHT22;69529;37.974;23.708;2023-05-10T12:26:42;23.80;42.60
80210;DHT22;69529;37.974;23.708;2023-05-10T12:29:17;23.80;42.70
80210;DHT22;69529;37.974;23.708;2023-05-10T12:31:51;23.80;42.80
80210;DHT22;69529;37.974;23.708;2023-05-10T12:34:37;23.80;42.70
80210;DHT22;69529;37.974;23.708;2023-05-10T12:36:53;23.90;42.60
80210;DHT22;69529;37.974;23.708;2023-05-10T12:39:21;23.80;43.20
80210;DHT22;69529;37.974;23.708;2023-05-10T12:41:48;23.80;42.80
80210;DHT22;69529;37.974;23.708;2023-05-10T12:44:15;23.80;42.80
80210;DHT22;69529;37.974;23.708;2023-05-10T12:46:42;23.80;42.80
80210;DHT22;69529;37.974;23.708;2023-05-10T12:49:09;23.90;42.80
80210;DHT22;69529;37.974;23.708;2023-05-10T12:51:36;23.90;42.70
80210;DHT22;69529;37.974;23.708;2023-05-10T12:54:03;23.90;42.70
80210;DHT22;69529;37.974;23.708;2023-05-10T12:56:30;23.90;42.80
80210;DHT22;69529;37.974;23.708;2023-05-10T12:58:57;23.80;42.70
80210;DHT22;69529;37.974;23.708;2023-05-10T13:01:24;23.80;42.80
80210;DHT22;69529;37.974;23.708;2023-05-10T13:03:51;23.80;42.80
80210;DHT22;69529;37.974;23.708;2023-05-10T13:06:18;23.80;42.80
80210;DHT22;69529;37.974;23.708;2023-05-10T13:08:45;23.80;42.70
80210;DHT22;69529;37.974;23.708;2023-05-10T13:11:12;23.80;42.80
80210;DHT22;69529;37.974;23.708;2023-05-10T13:13:40;23.80;42.90
80210;DHT22;69529;37.974;23.708;2023-05-10T13:16:07;23.70;43.00
80210;DHT22;69529;37.974;23.708;2023-05-10T13:18:34;23.70;43.00
80210;DHT22;69529;37.974;23.708;2023-05-10T13:21:01;23.70;43.10
80210;DHT22;69529;37.974;23.708;2023-05-10T13:23:29;23.80;43.10
80210;DHT22;69529;37.974;23.708;2023-05-10T13:25:56;23.80;43.10
80210;DHT22;69529;37.974;23.708;2023-05-10T13:28:23;23.70;43.10
80210;DHT22;69529;37.974;23.708;2023-05-10T13:30:52;23.70;43.20
80210;DHT22;69529;37.974;23.708;2023-05-10T13:33:19;23.70;43.30
80210;DHT22;69529;37.974;23.708;2023-05-10T13:35:46;23.70;43.30
80210;DHT22;69529;37.974;23.708;2023-05-10T13:38:12;23.70;43.20
80210;DHT22;69529;37.974;23.708;2023-05-10T13:40:39;23.70;43.30
80210;DHT22;69529;37.974;23.708;2023-05-10T13:43:06;23.70;43.30
80210;DHT22;69529;37.974;23.708;2023-05-10T13:45:33;23.70;43.40
80210;DHT22;69529;37.974;23.708;2023-05-10T13:48:00;23.70;43.40
80210;DHT22;69529;37.974;23.708;2023-05-10T13:50:27;23.70;43.40
80210;DHT22;69529;37.974;23.708;2023-05-10T13:52:54;23.70;43.60
80210;DHT22;69529;37.974;23.708;2023-05-10T13:55:21;23.60;43.60
80210;DHT22;69529;37.974;23.708;2023-05-10T13:57:48;23.60;43.70
80210;DHT22;69529;37.974;23.708;2023-05-10T14:00:15;23.60;43.70
80210;DHT22;69529;37.974;23.708;2023-05-10T14:02:42;23.60;43.70
80210;DHT22;69529;37.974;23.708;2023-05-10T14:05:09;23.60;43.80
80210;DHT22;69529;37.974;23.708;2023-05-10T14:07:36;23.60;43.90
80210;DHT22;69529;37.974;23.708;2023-05-10T14:10:03;23.60;43.90
80210;DHT22;69529;37.974;23.708;2023-05-10T14:12:30;23.60;43.90
80210;DHT22;69529;37.974;23.708;2023-05-10T14:14:56;23.60;44.00
80210;DHT22;69529;37.974;23.708;2023-05-10T14:17:23;23.50;44.00
80210;DHT22;69529;37.974;23.708;2023-05-10T14:19:50;23.60;44.00
80210;DHT22;69529;37.974;23.708;2023-05-10T14:22:17;23.60;43.90
80210;DHT22;69529;37.974;23.708;2023-05-10T14:24:44;23.60;44.60
80210;DHT22;69529;37.974;23.708;2023-05-10T14:30:04;23.60;44.90
80210;DHT22;69529;37.974;23.708;2023-05-10T14:32:31;23.50;44.10
80210;DHT22;69529;37.974;23.708;2023-05-10T14:34:59;23.50;44.10
80210;DHT22;69529;37.974;23.708;2023-05-10T14:37:25;23.50;44.10
80210;DHT22;69529;37.974;23.708;2023-05-10T14:39:52;23.50;44.10
80210;DHT22;69529;37.974;23.708;2023-05-10T14:42:19;23.50;44.30
80210;DHT22;69529;37.974;23.708;2023-05-10T14:44:47;23.50;44.20
80210;DHT22;69529;37.974;23.708;2023-05-10T14:47:14;23.50;44.20
80210;DHT22;69529;37.974;23.708;2023-05-10T14:49:41;23.50;44.20
80210;DHT22;69529;37.974;23.708;2023-05-10T14:52:07;23.50;44.30
80210;DHT22;69529;37.974;23.708;2023-05-10T14:54:34;23.50;44.40
80210;DHT22;69529;37.974;23.708;2023-05-10T14:57:01;23.50;44.30
80210;DHT22;69529;37.974;23.708;2023-05-10T14:59:28;23.50;44.40
80210;DHT22;69529;37.974;23.708;2023-05-10T15:01:55;23.50;44.40
80210;DHT22;69529;37.974;23.708;2023-05-10T15:04:22;23.40;44.40
80210;DHT22;69529;37.974;23.708;2023-05-10T15:06:49;23.40;44.40
80210;DHT22;69529;37.974;23.708;2023-05-10T15:09:16;23.40;44.50
80210;DHT22;69529;37.974;23.708;2023-05-10T15:11:43;23.40;44.50
80210;DHT22;69529;37.974;23.708;2023-05-10T15:14:10;23.40;44.70
80210;DHT22;69529;37.974;23.708;2023-05-10T15:16:37;23.40;44.60
80210;DHT22;69529;37.974;23.708;2023-05-10T15:19:04;23.40;44.60
80210;DHT22;69529;37.974;23.708;2023-05-10T15:21:31;23.40;44.70
80210;DHT22;69529;37.974;23.708;2023-05-10T15:23:59;23.40;44.70
80210;DHT22;69529;37.974;23.708;2023-05-10T15:26:26;23.30;44.70
80210;DHT22;69529;37.974;23.708;2023-05-10T15:28:53;23.40;44.70
80210;DHT22;69529;37.974;23.708;2023-05-10T15:31:20;23.30;44.70
80210;DHT22;69529;37.974;23.708;2023-05-10T15:33:47;23.30;44.70
80210;DHT22;69529;37.974;23.708;2023-05-10T15:36:14;23.30;44.80
80210;DHT22;69529;37.974;23.708;2023-05-10T15:38:43;23.30;44.80
80210;DHT22;69529;37.974;23.708;2023-05-10T15:41:10;23.20;44.80